sensor_id;sensor_type;location;lat;lon;timestamp;temperature;humidity
68274;SHT30;55104;47.356;19.448;2023-03-19T00:01:46;2.98;78.84
68274;SHT30;55104;47.356;19.448;2023-03-19T00:04:48;2.85;79.00
68274;SHT30;55104;47.356;19.448;2023-03-19T00:07:50;2.73;79.06
68274;SHT30;55104;47.356;19.448;2023-03-19T00:10:52;2.61;79.13
68274;SHT30;55104;47.356;19.448;2023-03-19T00:13:54;2.58;79.64
68274;SHT30;55104;47.356;19.448;2023-03-19T00:16:57;2.56;79.89
68274;SHT30;55104;47.356;19.448;2023-03-19T00:19:59;2.54;79.93
68274;SHT30;55104;47.356;19.448;2023-03-19T00:23:01;2.46;80.09
68274;SHT30;55104;47.356;19.448;2023-03-19T00:26:03;2.43;79.84
68274;SHT30;55104;47.356;19.448;2023-03-19T00:29:06;2.36;80.25
68274;SHT30;55104;47.356;19.448;2023-03-19T00:32:09;2.32;80.02
68274;SHT30;55104;47.356;19.448;2023-03-19T00:35:12;2.30;80.48
68274;SHT30;55104;47.356;19.448;2023-03-19T00:38:14;2.29;80.77
68274;SHT30;55104;47.356;19.448;2023-03-19T00:41:17;2.26;80.51
68274;SHT30;55104;47.356;19.448;2023-03-19T00:44:19;2.28;80.66
68274;SHT30;55104;47.356;19.448;2023-03-19T00:47:22;2.24;80.34
68274;SHT30;55104;47.356;19.448;2023-03-19T00:50:24;2.18;80.46
68274;SHT30;55104;47.356;19.448;2023-03-19T00:53:27;2.12;80.61
68274;SHT30;55104;47.356;19.448;2023-03-19T00:56:29;2.14;80.53
68274;SHT30;55104;47.356;19.448;2023-03-19T00:59:32;2.21;80.19
68274;SHT30;55104;47.356;19.448;2023-03-19T01:02:34;2.22;80.10
68274;SHT30;55104;47.356;19.448;2023-03-19T01:05:36;2.24;80.19
68274;SHT30;55104;47.356;19.448;2023-03-19T01:08:37;2.36;79.80
68274;SHT30;55104;47.356;19.448;2023-03-19T01:11:39;2.47;79.40
68274;SHT30;55104;47.356;19.448;2023-03-19T01:14:42;2.42;79.39
68274;SHT30;55104;47.356;19.448;2023-03-19T01:17:44;2.46;79.41
68274;SHT30;55104;47.356;19.448;2023-03-19T01:20:46;2.47;79.30
68274;SHT30;55104;47.356;19.448;2023-03-19T01:23:49;2.46;79.13
68274;SHT30;55104;47.356;19.448;2023-03-19T01:26:54;2.53;79.04
68274;SHT30;55104;47.356;19.448;2023-03-19T01:30:04;2.47;79.02
68274;SHT30;55104;47.356;19.448;2023-03-19T01:33:27;2.43;79.11
68274;SHT30;55104;47.356;19.448;2023-03-19T01:36:44;2.39;79.11
68274;SHT30;55104;47.356;19.448;2023-03-19T01:39:50;2.33;79.20
68274;SHT30;55104;47.356;19.448;2023-03-19T01:42:55;2.32;79.52
68274;SHT30;55104;47.356;19.448;2023-03-19T01:46:29;2.29;79.44
68274;SHT30;55104;47.356;19.448;2023-03-19T01:49:53;2.24;79.59
68274;SHT30;55104;47.356;19.448;2023-03-19T01:52:56;2.22;79.50
68274;SHT30;55104;47.356;19.448;2023-03-19T01:56:08;2.15;79.81
68274;SHT30;55104;47.356;19.448;2023-03-19T01:59:34;2.15;79.49
68274;SHT30;55104;47.356;19.448;2023-03-19T02:03:09;2.07;79.90
68274;SHT30;55104;47.356;19.448;2023-03-19T02:06:23;2.09;80.11
68274;SHT30;55104;47.356;19.448;2023-03-19T02:09:27;2.04;80.22
68274;SHT30;55104;47.356;19.448;2023-03-19T02:12:29;2.04;80.49
68274;SHT30;55104;47.356;19.448;2023-03-19T02:15:32;1.97;80.61
68274;SHT30;55104;47.356;19.448;2023-03-19T02:18:34;1.94;80.27
68274;SHT30;55104;47.356;19.448;2023-03-19T02:21:38;1.84;80.42
68274;SHT30;55104;47.356;19.448;2023-03-19T02:24:47;1.78;80.61
68274;SHT30;55104;47.356;19.448;2023-03-19T02:27:53;1.71;80.56
68274;SHT30;55104;47.356;19.448;2023-03-19T02:30:55;1.73;81.02
68274;SHT30;55104;47.356;19.448;2023-03-19T02:34:04;1.66;81.01
68274;SHT30;55104;47.356;19.448;2023-03-19T02:37:12;1.62;81.07
68274;SHT30;55104;47.356;19.448;2023-03-19T02:40:21;1.62;81.22
68274;SHT30;55104;47.356;19.448;2023-03-19T02:43:25;1.63;81.31
68274;SHT30;55104;47.356;19.448;2023-03-19T02:46:28;1.73;81.30
68274;SHT30;55104;47.356;19.448;2023-03-19T02:49:30;1.82;80.94
68274;SHT30;55104;47.356;19.448;2023-03-19T02:52:32;1.94;80.64
68274;SHT30;55104;47.356;19.448;2023-03-19T02:55:34;1.97;80.41
68274;SHT30;55104;47.356;19.448;2023-03-19T02:58:37;1.99;80.39
68274;SHT30;55104;47.356;19.448;2023-03-19T03:01:39;2.07;80.13
68274;SHT30;55104;47.356;19.448;2023-03-19T03:04:42;2.05;80.09
68274;SHT30;55104;47.356;19.448;2023-03-19T03:07:44;2.05;79.89
68274;SHT30;55104;47.356;19.448;2023-03-19T03:10:46;2.09;79.77
68274;SHT30;55104;47.356;19.448;2023-03-19T03:13:49;2.12;79.68
68274;SHT30;55104;47.356;19.448;2023-03-19T03:16:51;2.17;79.42
68274;SHT30;55104;47.356;19.448;2023-03-19T03:19:54;2.11;79.60
68274;SHT30;55104;47.356;19.448;2023-03-19T03:22:56;2.12;79.56
68274;SHT30;55104;47.356;19.448;2023-03-19T03:25:59;2.17;79.45
68274;SHT30;55104;47.356;19.448;2023-03-19T03:29:01;2.15;79.40
68274;SHT30;55104;47.356;19.448;2023-03-19T03:32:04;2.17;79.43
68274;SHT30;55104;47.356;19.448;2023-03-19T03:35:07;2.17;79.40
68274;SHT30;55104;47.356;19.448;2023-03-19T03:38:10;2.17;79.36
68274;SHT30;55104;47.356;19.448;2023-03-19T03:41:12;2.19;79.42
68274;SHT30;55104;47.356;19.448;2023-03-19T03:44:14;2.21;79.16
68274;SHT30;55104;47.356;19.448;2023-03-19T03:47:16;2.21;79.06
68274;SHT30;55104;47.356;19.448;2023-03-19T03:50:18;2.25;79.16
68274;SHT30;55104;47.356;19.448;2023-03-19T03:53:22;2.26;78.89
68274;SHT30;55104;47.356;19.448;2023-03-19T03:56:24;2.24;78.91
68274;SHT30;55104;47.356;19.448;2023-03-19T03:59:27;2.24;78.84
68274;SHT30;55104;47.356;19.448;2023-03-19T04:02:29;2.21;78.92
68274;SHT30;55104;47.356;19.448;2023-03-19T04:05:31;2.19;78.83
68274;SHT30;55104;47.356;19.448;2023-03-19T04:08:33;2.18;78.83
68274;SHT30;55104;47.356;19.448;2023-03-19T04:11:37;2.15;79.07
68274;SHT30;55104;47.356;19.448;2023-03-19T04:14:39;2.08;79.23
68274;SHT30;55104;47.356;19.448;2023-03-19T04:17:41;2.08;79.38
68274;SHT30;55104;47.356;19.448;2023-03-19T04:20:44;2.01;79.34
68274;SHT30;55104;47.356;19.448;2023-03-19T04:23:46;2.02;79.34
68274;SHT30;55104;47.356;19.448;2023-03-19T04:26:48;1.99;79.38
68274;SHT30;55104;47.356;19.448;2023-03-19T04:29:51;2.07;79.33
68274;SHT30;55104;47.356;19.448;2023-03-19T04:32:54;2.11;79.39
68274;SHT30;55104;47.356;19.448;2023-03-19T04:35:57;2.12;79.38
68274;SHT30;55104;47.356;19.448;2023-03-19T04:39:00;2.07;79.31
68274;SHT30;55104;47.356;19.448;2023-03-19T04:42:03;2.01;79.43
68274;SHT30;55104;47.356;19.448;2023-03-19T04:45:09;1.97;79.53
68274;SHT30;55104;47.356;19.448;2023-03-19T04:48:14;1.90;79.76
68274;SHT30;55104;47.356;19.448;2023-03-19T04:51:16;1.82;80.07
68274;SHT30;55104;47.356;19.448;2023-03-19T04:54:19;1.71;80.40
68274;SHT30;55104;47.356;19.448;2023-03-19T04:57:21;1.73;80.74
68274;SHT30;55104;47.356;19.448;2023-03-19T05:00:26;1.63;81.40
68274;SHT30;55104;47.356;19.448;2023-03-19T05:03:29;1.60;81.43
68274;SHT30;55104;47.356;19.448;2023-03-19T05:06:31;1.63;81.37
68274;SHT30;55104;47.356;19.448;2023-03-19T05:09:34;1.71;81.19
68274;SHT30;55104;47.356;19.448;2023-03-19T05:12:36;1.68;81.25
68274;SHT30;55104;47.356;19.448;2023-03-19T05:15:43;1.71;81.21
68274;SHT30;55104;47.356;19.448;2023-03-19T05:18:47;1.68;81.45
68274;SHT30;55104;47.356;19.448;2023-03-19T05:21:50;1.64;81.50
68274;SHT30;55104;47.356;19.448;2023-03-19T05:24:57;1.66;81.61
68274;SHT30;55104;47.356;19.448;2023-03-19T05:28:00;1.70;81.67
68274;SHT30;55104;47.356;19.448;2023-03-19T05:31:03;1.73;81.79
68274;SHT30;55104;47.356;19.448;2023-03-19T05:34:13;1.82;81.50
68274;SHT30;55104;47.356;19.448;2023-03-19T05:37:15;1.95;81.22
68274;SHT30;55104;47.356;19.448;2023-03-19T05:40:22;2.04;81.10
68274;SHT30;55104;47.356;19.448;2023-03-19T05:43:26;2.14;80.95
68274;SHT30;55104;47.356;19.448;2023-03-19T05:46:28;2.24;80.41
68274;SHT30;55104;47.356;19.448;2023-03-19T05:49:30;2.30;80.26
68274;SHT30;55104;47.356;19.448;2023-03-19T05:52:33;2.42;79.94
68274;SHT30;55104;47.356;19.448;2023-03-19T05:55:35;2.52;79.55
68274;SHT30;55104;47.356;19.448;2023-03-19T05:58:40;2.63;79.20
68274;SHT30;55104;47.356;19.448;2023-03-19T06:01:42;2.73;79.06
68274;SHT30;55104;47.356;19.448;2023-03-19T06:04:44;2.84;78.62
68274;SHT30;55104;47.356;19.448;2023-03-19T06:07:47;2.98;78.41
68274;SHT30;55104;47.356;19.448;2023-03-19T06:10:57;3.15;77.98
68274;SHT30;55104;47.356;19.448;2023-03-19T06:14:00;3.33;77.62
68274;SHT30;55104;47.356;19.448;2023-03-19T06:17:04;3.42;77.67
68274;SHT30;55104;47.356;19.448;2023-03-19T06:20:07;3.66;76.79
68274;SHT30;55104;47.356;19.448;2023-03-19T06:23:09;3.80;76.68
68274;SHT30;55104;47.356;19.448;2023-03-19T06:26:11;4.01;74.99
68274;SHT30;55104;47.356;19.448;2023-03-19T06:29:22;4.26;73.80
68274;SHT30;55104;47.356;19.448;2023-03-19T06:32:30;4.43;73.15
68274;SHT30;55104;47.356;19.448;2023-03-19T06:35:38;4.56;72.74
68274;SHT30;55104;47.356;19.448;2023-03-19T06:38:40;4.68;72.48
68274;SHT30;55104;47.356;19.448;2023-03-19T06:41:42;4.85;71.99
68274;SHT30;55104;47.356;19.448;2023-03-19T06:44:51;4.92;70.71
68274;SHT30;55104;47.356;19.448;2023-03-19T06:47:54;4.92;71.54
68274;SHT30;55104;47.356;19.448;2023-03-19T06:50:56;5.02;70.69
68274;SHT30;55104;47.356;19.448;2023-03-19T06:53:59;5.05;71.37
68274;SHT30;55104;47.356;19.448;2023-03-19T06:57:01;5.08;71.53
68274;SHT30;55104;47.356;19.448;2023-03-19T07:00:04;5.16;70.88
68274;SHT30;55104;47.356;19.448;2023-03-19T07:03:08;5.19;71.21
68274;SHT30;55104;47.356;19.448;2023-03-19T07:06:10;5.29;71.45
68274;SHT30;55104;47.356;19.448;2023-03-19T07:09:12;5.32;70.93
68274;SHT30;55104;47.356;19.448;2023-03-19T07:12:15;5.35;71.32
68274;SHT30;55104;47.356;19.448;2023-03-19T07:15:17;5.50;71.41
68274;SHT30;55104;47.356;19.448;2023-03-19T07:18:21;5.46;71.11
68274;SHT30;55104;47.356;19.448;2023-03-19T07:21:23;5.61;70.90
68274;SHT30;55104;47.356;19.448;2023-03-19T07:24:25;5.74;70.77
68274;SHT30;55104;47.356;19.448;2023-03-19T07:27:27;5.90;69.52
68274;SHT30;55104;47.356;19.448;2023-03-19T07:30:29;6.06;69.88
68274;SHT30;55104;47.356;19.448;2023-03-19T07:33:33;6.30;69.84
68274;SHT30;55104;47.356;19.448;2023-03-19T07:36:35;6.40;68.68
68274;SHT30;55104;47.356;19.448;2023-03-19T07:39:37;6.61;68.75
68274;SHT30;55104;47.356;19.448;2023-03-19T07:42:40;6.92;68.01
68274;SHT30;55104;47.356;19.448;2023-03-19T07:45:45;7.19;67.91
68274;SHT30;55104;47.356;19.448;2023-03-19T07:48:47;7.42;65.76
68274;SHT30;55104;47.356;19.448;2023-03-19T07:51:49;7.52;66.62
68274;SHT30;55104;47.356;19.448;2023-03-19T07:54:51;7.70;64.84
68274;SHT30;55104;47.356;19.448;2023-03-19T07:57:53;8.08;59.75
68274;SHT30;55104;47.356;19.448;2023-03-19T08:00:55;8.22;58.78
68274;SHT30;55104;47.356;19.448;2023-03-19T08:03:57;8.35;57.89
68274;SHT30;55104;47.356;19.448;2023-03-19T08:06:59;8.52;57.24
68274;SHT30;55104;47.356;19.448;2023-03-19T08:10:05;8.59;55.85
68274;SHT30;55104;47.356;19.448;2023-03-19T08:13:07;8.83;56.97
68274;SHT30;55104;47.356;19.448;2023-03-19T08:16:10;9.02;56.11
68274;SHT30;55104;47.356;19.448;2023-03-19T08:19:13;8.97;53.25
68274;SHT30;55104;47.356;19.448;2023-03-19T08:22:15;9.07;54.34
68274;SHT30;55104;47.356;19.448;2023-03-19T08:25:18;9.16;54.52
68274;SHT30;55104;47.356;19.448;2023-03-19T08:28:20;9.25;54.64
68274;SHT30;55104;47.356;19.448;2023-03-19T08:31:22;9.38;54.49
68274;SHT30;55104;47.356;19.448;2023-03-19T08:34:24;9.60;54.71
68274;SHT30;55104;47.356;19.448;2023-03-19T08:37:27;9.76;53.25
68274;SHT30;55104;47.356;19.448;2023-03-19T08:40:30;9.84;53.03
68274;SHT30;55104;47.356;19.448;2023-03-19T08:43:33;9.97;52.27
68274;SHT30;55104;47.356;19.448;2023-03-19T08:46:35;10.05;52.44
68274;SHT30;55104;47.356;19.448;2023-03-19T08:49:37;10.11;52.66
68274;SHT30;55104;47.356;19.448;2023-03-19T08:52:39;10.05;52.07
68274;SHT30;55104;47.356;19.448;2023-03-19T08:55:42;10.23;52.96
68274;SHT30;55104;47.356;19.448;2023-03-19T08:58:44;10.40;52.38
68274;SHT30;55104;47.356;19.448;2023-03-19T09:01:51;10.40;52.06
68274;SHT30;55104;47.356;19.448;2023-03-19T09:04:53;10.46;51.50
68274;SHT30;55104;47.356;19.448;2023-03-19T09:07:56;10.52;51.60
68274;SHT30;55104;47.356;19.448;2023-03-19T09:10:58;10.73;51.19
68274;SHT30;55104;47.356;19.448;2023-03-19T09:14:00;10.93;51.62
68274;SHT30;55104;47.356;19.448;2023-03-19T09:17:03;11.15;51.18
68274;SHT30;55104;47.356;19.448;2023-03-19T09:20:06;11.36;51.50
68274;SHT30;55104;47.356;19.448;2023-03-19T09:23:08;11.42;50.17
68274;SHT30;55104;47.356;19.448;2023-03-19T09:26:10;11.60;49.17
68274;SHT30;55104;47.356;19.448;2023-03-19T09:29:12;11.71;49.19
68274;SHT30;55104;47.356;19.448;2023-03-19T09:32:15;11.84;49.32
68274;SHT30;55104;47.356;19.448;2023-03-19T09:35:17;11.86;49.49
68274;SHT30;55104;47.356;19.448;2023-03-19T09:38:20;11.91;47.69
68274;SHT30;55104;47.356;19.448;2023-03-19T09:44:39;12.41;47.98
68274;SHT30;55104;47.356;19.448;2023-03-19T09:47:46;12.59;47.32
68274;SHT30;55104;47.356;19.448;2023-03-19T09:50:50;12.87;46.47
68274;SHT30;55104;47.356;19.448;2023-03-19T09:54:01;13.05;46.26
68274;SHT30;55104;47.356;19.448;2023-03-19T09:57:07;13.11;45.72
68274;SHT30;55104;47.356;19.448;2023-03-19T10:00:19;13.24;44.09
68274;SHT30;55104;47.356;19.448;2023-03-19T10:03:32;13.46;43.42
68274;SHT30;55104;47.356;19.448;2023-03-19T10:06:40;13.56;42.85
68274;SHT30;55104;47.356;19.448;2023-03-19T10:16:23;13.65;43.51
68274;SHT30;55104;47.356;19.448;2023-03-19T10:19:37;13.87;43.42
68274;SHT30;55104;47.356;19.448;2023-03-19T10:22:46;13.63;42.98
68274;SHT30;55104;47.356;19.448;2023-03-19T10:25:53;13.80;42.49
68274;SHT30;55104;47.356;19.448;2023-03-19T10:32:15;14.25;40.10
68274;SHT30;55104;47.356;19.448;2023-03-19T10:35:22;14.32;40.99
68274;SHT30;55104;47.356;19.448;2023-03-19T10:38:26;14.41;40.27
68274;SHT30;55104;47.356;19.448;2023-03-19T10:41:40;14.58;40.57
68274;SHT30;55104;47.356;19.448;2023-03-19T10:44:50;14.59;39.95
68274;SHT30;55104;47.356;19.448;2023-03-19T10:47:58;14.87;39.65
68274;SHT30;55104;47.356;19.448;2023-03-19T10:51:03;14.98;39.47
68274;SHT30;55104;47.356;19.448;2023-03-19T10:54:22;15.07;39.31
68274;SHT30;55104;47.356;19.448;2023-03-19T10:57:27;14.93;39.46
68274;SHT30;55104;47.356;19.448;2023-03-19T11:00:32;14.94;40.32
68274;SHT30;55104;47.356;19.448;2023-03-19T11:03:50;15.25;38.98
68274;SHT30;55104;47.356;19.448;2023-03-19T11:06:55;15.16;38.76
68274;SHT30;55104;47.356;19.448;2023-03-19T11:09:57;15.35;39.33
68274;SHT30;55104;47.356;19.448;2023-03-19T11:13:05;15.53;39.24
68274;SHT30;55104;47.356;19.448;2023-03-19T11:16:08;15.30;38.15
68274;SHT30;55104;47.356;19.448;2023-03-19T11:19:21;15.44;39.35
68274;SHT30;55104;47.356;19.448;2023-03-19T11:22:26;15.58;38.43
68274;SHT30;55104;47.356;19.448;2023-03-19T11:25:39;15.38;38.54
68274;SHT30;55104;47.356;19.448;2023-03-19T11:28:42;15.53;36.86
68274;SHT30;55104;47.356;19.448;2023-03-19T11:31:53;15.46;38.28
68274;SHT30;55104;47.356;19.448;2023-03-19T11:35:23;15.74;39.22
68274;SHT30;55104;47.356;19.448;2023-03-19T11:49:40;15.80;37.27
68274;SHT30;55104;47.356;19.448;2023-03-19T12:17:06;16.54;36.65
68274;SHT30;55104;47.356;19.448;2023-03-19T12:20:29;16.80;37.38
68274;SHT30;55104;47.356;19.448;2023-03-19T12:23:58;16.65;35.56
68274;SHT30;55104;47.356;19.448;2023-03-19T12:27:43;16.72;36.42
68274;SHT30;55104;47.356;19.448;2023-03-19T12:34:50;16.83;36.08
68274;SHT30;55104;47.356;19.448;2023-03-19T12:41:08;16.66;35.43
68274;SHT30;55104;47.356;19.448;2023-03-19T12:44:36;16.63;36.93
68274;SHT30;55104;47.356;19.448;2023-03-19T12:47:39;16.69;36.51
68274;SHT30;55104;47.356;19.448;2023-03-19T12:50:46;16.87;35.66
68274;SHT30;55104;47.356;19.448;2023-03-19T12:54:17;16.87;35.88
68274;SHT30;55104;47.356;19.448;2023-03-19T12:57:53;16.87;36.13
68274;SHT30;55104;47.356;19.448;2023-03-19T13:01:22;16.65;35.67
68274;SHT30;55104;47.356;19.448;2023-03-19T13:04:29;16.87;36.42
68274;SHT30;55104;47.356;19.448;2023-03-19T13:07:48;17.02;36.02
68274;SHT30;55104;47.356;19.448;2023-03-19T13:10:50;17.06;35.72
68274;SHT30;55104;47.356;19.448;2023-03-19T13:17:22;16.94;35.95
68274;SHT30;55104;47.356;19.448;2023-03-19T13:20:48;17.16;36.00
68274;SHT30;55104;47.356;19.448;2023-03-19T13:24:27;17.37;35.89
68274;SHT30;55104;47.356;19.448;2023-03-19T13:27:32;17.39;35.38
68274;SHT30;55104;47.356;19.448;2023-03-19T13:30:35;17.41;34.77
68274;SHT30;55104;47.356;19.448;2023-03-19T13:34:34;17.27;34.70
68274;SHT30;55104;47.356;19.448;2023-03-19T13:43:41;16.28;36.05
68274;SHT30;55104;47.356;19.448;2023-03-19T13:46:44;15.96;36.04
68274;SHT30;55104;47.356;19.448;2023-03-19T13:56:34;15.49;37.01
68274;SHT30;55104;47.356;19.448;2023-03-19T13:59:54;15.59;38.23
68274;SHT30;55104;47.356;19.448;2023-03-19T14:02:56;15.89;38.99
68274;SHT30;55104;47.356;19.448;2023-03-19T14:06:00;15.97;38.37
68274;SHT30;55104;47.356;19.448;2023-03-19T14:09:04;16.14;38.27
68274;SHT30;55104;47.356;19.448;2023-03-19T14:15:21;16.28;38.05
68274;SHT30;55104;47.356;19.448;2023-03-19T14:18:24;16.48;38.09
68274;SHT30;55104;47.356;19.448;2023-03-19T14:21:45;16.93;37.80
68274;SHT30;55104;47.356;19.448;2023-03-19T14:25:12;17.41;37.45
68274;SHT30;55104;47.356;19.448;2023-03-19T14:28:18;17.56;36.68
68274;SHT30;55104;47.356;19.448;2023-03-19T14:31:23;17.47;36.45
68274;SHT30;55104;47.356;19.448;2023-03-19T14:34:41;17.73;35.85
68274;SHT30;55104;47.356;19.448;2023-03-19T14:37:47;17.65;36.18
68274;SHT30;55104;47.356;19.448;2023-03-19T14:40:50;17.11;36.47
68274;SHT30;55104;47.356;19.448;2023-03-19T14:50:50;16.72;37.45
68274;SHT30;55104;47.356;19.448;2023-03-19T14:54:05;16.68;36.98
68274;SHT30;55104;47.356;19.448;2023-03-19T14:57:27;16.55;37.37
68274;SHT30;55104;47.356;19.448;2023-03-19T15:00:39;16.61;37.01
68274;SHT30;55104;47.356;19.448;2023-03-19T15:03:42;16.45;37.48
68274;SHT30;55104;47.356;19.448;2023-03-19T15:06:54;16.41;37.84
68274;SHT30;55104;47.356;19.448;2023-03-19T15:10:00;16.47;38.31
68274;SHT30;55104;47.356;19.448;2023-03-19T15:20:02;16.32;39.27
68274;SHT30;55104;47.356;19.448;2023-03-19T15:23:07;16.32;39.10
68274;SHT30;55104;47.356;19.448;2023-03-19T15:26:36;16.34;38.83
68274;SHT30;55104;47.356;19.448;2023-03-19T15:29:38;16.24;37.97
68274;SHT30;55104;47.356;19.448;2023-03-19T15:32:40;16.18;38.27
68274;SHT30;55104;47.356;19.448;2023-03-19T15:36:15;16.01;39.74
68274;SHT30;55104;47.356;19.448;2023-03-19T15:39:18;15.80;38.81
68274;SHT30;55104;47.356;19.448;2023-03-19T15:42:22;15.65;39.37
68274;SHT30;55104;47.356;19.448;2023-03-19T15:45:26;15.44;40.22
68274;SHT30;55104;47.356;19.448;2023-03-19T15:48:40;15.28;40.57
68274;SHT30;55104;47.356;19.448;2023-03-19T15:51:45;15.14;41.58
68274;SHT30;55104;47.356;19.448;2023-03-19T15:54:54;15.11;41.50
68274;SHT30;55104;47.356;19.448;2023-03-19T15:57:56;15.07;41.40
68274;SHT30;55104;47.356;19.448;2023-03-19T16:01:06;15.01;41.31
68274;SHT30;55104;47.356;19.448;2023-03-19T16:04:18;14.87;41.49
68274;SHT30;55104;47.356;19.448;2023-03-19T16:07:42;14.79;41.47
68274;SHT30;55104;47.356;19.448;2023-03-19T16:10:44;14.68;42.05
68274;SHT30;55104;47.356;19.448;2023-03-19T16:13:59;14.56;42.61
68274;SHT30;55104;47.356;19.448;2023-03-19T16:17:13;14.42;42.52
68274;SHT30;55104;47.356;19.448;2023-03-19T16:20:15;14.22;42.60
68274;SHT30;55104;47.356;19.448;2023-03-19T16:23:28;14.07;43.06
68274;SHT30;55104;47.356;19.448;2023-03-19T16:26:44;13.96;43.13
68274;SHT30;55104;47.356;19.448;2023-03-19T16:29:57;13.80;43.40
68274;SHT30;55104;47.356;19.448;2023-03-19T16:33:02;13.60;43.89
68274;SHT30;55104;47.356;19.448;2023-03-19T16:36:10;13.41;44.53
68274;SHT30;55104;47.356;19.448;2023-03-19T16:39:33;13.24;44.80
68274;SHT30;55104;47.356;19.448;2023-03-19T16:42:46;13.00;45.77
68274;SHT30;55104;47.356;19.448;2023-03-19T16:45:53;12.77;46.00
68274;SHT30;55104;47.356;19.448;2023-03-19T16:49:03;12.57;46.90
68274;SHT30;55104;47.356;19.448;2023-03-19T16:52:13;12.35;48.00
68274;SHT30;55104;47.356;19.448;2023-03-19T16:55:21;12.21;48.77
68274;SHT30;55104;47.356;19.448;2023-03-19T16:58:28;11.95;50.37
68274;SHT30;55104;47.356;19.448;2023-03-19T17:01:32;11.86;51.00
68274;SHT30;55104;47.356;19.448;2023-03-19T17:04:35;11.66;52.12
68274;SHT30;55104;47.356;19.448;2023-03-19T17:07:37;11.49;52.48
68274;SHT30;55104;47.356;19.448;2023-03-19T17:10:48;11.33;52.44
68274;SHT30;55104;47.356;19.448;2023-03-19T17:13:52;11.21;53.15
68274;SHT30;55104;47.356;19.448;2023-03-19T17:16:54;11.11;53.92
68274;SHT30;55104;47.356;19.448;2023-03-19T17:19:57;11.04;54.89
68274;SHT30;55104;47.356;19.448;2023-03-19T17:23:00;10.94;55.67
68274;SHT30;55104;47.356;19.448;2023-03-19T17:26:14;10.85;55.53
68274;SHT30;55104;47.356;19.448;2023-03-19T17:29:17;10.83;55.71
68274;SHT30;55104;47.356;19.448;2023-03-19T17:32:27;10.87;54.46
68274;SHT30;55104;47.356;19.448;2023-03-19T17:35:29;10.87;54.75
68274;SHT30;55104;47.356;19.448;2023-03-19T17:38:32;10.78;55.13
68274;SHT30;55104;47.356;19.448;2023-03-19T17:41:35;10.76;55.05
68274;SHT30;55104;47.356;19.448;2023-03-19T17:44:37;10.77;55.07
68274;SHT30;55104;47.356;19.448;2023-03-19T17:47:40;10.74;55.76
68274;SHT30;55104;47.356;19.448;2023-03-19T17:50:42;10.73;55.64
68274;SHT30;55104;47.356;19.448;2023-03-19T17:53:48;10.74;55.38
68274;SHT30;55104;47.356;19.448;2023-03-19T17:56:51;10.80;54.60
68274;SHT30;55104;47.356;19.448;2023-03-19T17:59:53;10.83;54.54
68274;SHT30;55104;47.356;19.448;2023-03-19T18:02:56;10.83;54.78
68274;SHT30;55104;47.356;19.448;2023-03-19T18:05:58;10.71;55.28
68274;SHT30;55104;47.356;19.448;2023-03-19T18:09:02;10.70;55.46
68274;SHT30;55104;47.356;19.448;2023-03-19T18:12:04;10.67;55.87
68274;SHT30;55104;47.356;19.448;2023-03-19T18:15:07;10.67;55.85
68274;SHT30;55104;47.356;19.448;2023-03-19T18:18:16;10.70;56.45
68274;SHT30;55104;47.356;19.448;2023-03-19T18:21:19;10.80;54.81
68274;SHT30;55104;47.356;19.448;2023-03-19T18:24:21;10.80;54.86
68274;SHT30;55104;47.356;19.448;2023-03-19T18:27:23;10.77;55.40
68274;SHT30;55104;47.356;19.448;2023-03-19T18:30:28;10.80;55.12
68274;SHT30;55104;47.356;19.448;2023-03-19T18:33:31;10.74;55.47
68274;SHT30;55104;47.356;19.448;2023-03-19T18:36:34;10.71;55.00
68274;SHT30;55104;47.356;19.448;2023-03-19T18:39:36;10.70;55.07
68274;SHT30;55104;47.356;19.448;2023-03-19T18:42:39;10.67;54.92
68274;SHT30;55104;47.356;19.448;2023-03-19T18:45:43;10.68;55.13
68274;SHT30;55104;47.356;19.448;2023-03-19T18:48:46;10.68;55.16
68274;SHT30;55104;47.356;19.448;2023-03-19T18:51:49;10.64;55.22
68274;SHT30;55104;47.356;19.448;2023-03-19T18:55:03;10.66;55.68
68274;SHT30;55104;47.356;19.448;2023-03-19T18:58:05;10.64;55.71
68274;SHT30;55104;47.356;19.448;2023-03-19T19:01:11;10.60;56.07
68274;SHT30;55104;47.356;19.448;2023-03-19T19:04:16;10.55;56.57
68274;SHT30;55104;47.356;19.448;2023-03-19T19:07:25;10.57;56.21
68274;SHT30;55104;47.356;19.448;2023-03-19T19:10:41;10.53;56.56
68274;SHT30;55104;47.356;19.448;2023-03-19T19:13:53;10.42;56.97
68274;SHT30;55104;47.356;19.448;2023-03-19T19:16:57;10.40;57.77
68274;SHT30;55104;47.356;19.448;2023-03-19T19:20:00;10.40;57.15
68274;SHT30;55104;47.356;19.448;2023-03-19T19:23:02;10.40;56.83
68274;SHT30;55104;47.356;19.448;2023-03-19T19:26:04;10.33;57.60
68274;SHT30;55104;47.356;19.448;2023-03-19T19:29:10;10.33;57.52
68274;SHT30;55104;47.356;19.448;2023-03-19T19:32:22;10.33;57.68
68274;SHT30;55104;47.356;19.448;2023-03-19T19:35:27;10.29;57.84
68274;SHT30;55104;47.356;19.448;2023-03-19T19:38:29;10.26;58.37
68274;SHT30;55104;47.356;19.448;2023-03-19T19:41:31;10.25;58.70
68274;SHT30;55104;47.356;19.448;2023-03-19T19:44:35;10.28;58.02
68274;SHT30;55104;47.356;19.448;2023-03-19T19:47:37;10.33;57.72
68274;SHT30;55104;47.356;19.448;2023-03-19T19:50:39;10.40;57.57
68274;SHT30;55104;47.356;19.448;2023-03-19T19:53:42;10.33;57.43
68274;SHT30;55104;47.356;19.448;2023-03-19T19:56:44;10.33;58.02
68274;SHT30;55104;47.356;19.448;2023-03-19T19:59:48;10.32;57.78
68274;SHT30;55104;47.356;19.448;2023-03-19T20:02:52;10.42;57.27
68274;SHT30;55104;47.356;19.448;2023-03-19T20:05:54;10.43;56.77
68274;SHT30;55104;47.356;19.448;2023-03-19T20:08:56;10.43;57.32
68274;SHT30;55104;47.356;19.448;2023-03-19T20:11:58;10.38;57.30
68274;SHT30;55104;47.356;19.448;2023-03-19T20:15:01;10.35;58.00
68274;SHT30;55104;47.356;19.448;2023-03-19T20:18:04;10.40;57.18
68274;SHT30;55104;47.356;19.448;2023-03-19T20:21:06;10.39;57.56
68274;SHT30;55104;47.356;19.448;2023-03-19T20:24:08;10.33;57.35
68274;SHT30;55104;47.356;19.448;2023-03-19T20:27:19;10.40;57.09
68274;SHT30;55104;47.356;19.448;2023-03-19T20:33:29;10.56;56.56
68274;SHT30;55104;47.356;19.448;2023-03-19T20:36:32;10.55;56.99
68274;SHT30;55104;47.356;19.448;2023-03-19T20:39:34;10.53;57.02
68274;SHT30;55104;47.356;19.448;2023-03-19T20:42:36;10.50;57.14
68274;SHT30;55104;47.356;19.448;2023-03-19T20:45:38;10.42;57.73
68274;SHT30;55104;47.356;19.448;2023-03-19T20:48:40;10.46;57.50
68274;SHT30;55104;47.356;19.448;2023-03-19T20:51:42;10.46;57.37
68274;SHT30;55104;47.356;19.448;2023-03-19T20:54:44;10.49;57.30
68274;SHT30;55104;47.356;19.448;2023-03-19T20:57:48;10.45;57.42